Terminal Aerodrome Forecast
Issued by NWS Cleveland, OH

Home | Current Version | Previous Version | Graphics & Text | Print | Product List | Glossary On
Versions: 1 2 3 4 5 6 7 8 9 10 11 12 13 14 15 16 17
000
FTUS41 KCLE 101852 AAA
TAFTOL
TAF AMD
KTOL 101852Z 1019/1118 22014KT P6SM BKN060 OVC150
     FM102300 24008KT P6SM BKN030 OVC035
      TEMPO 1023/1102 SCT030 OVC035
     FM110200 27008KT P6SM SCT020 OVC035
      TEMPO 1102/1106 BKN020 OVC035
     FM111300 20005KT P6SM OVC025=

USA.gov is the U.S. government's official web portal to all federal, state and local government web resources and services.